sensor_id;sensor_type;location;lat;lon;timestamp;temperature;humidity
28069;DHT22;15382;47.578;8.086;2024-03-06T00:01:35;5.40;99.90
28069;DHT22;15382;47.578;8.086;2024-03-06T00:11:36;5.30;99.90
28069;DHT22;15382;47.578;8.086;2024-03-06T00:21:36;5.20;99.90
28069;DHT22;15382;47.578;8.086;2024-03-06T00:31:41;5.10;99.90
28069;DHT22;15382;47.578;8.086;2024-03-06T00:41:42;5.00;99.90
28069;DHT22;15382;47.578;8.086;2024-03-06T00:51:43;4.90;99.90
28069;DHT22;15382;47.578;8.086;2024-03-06T01:01:44;4.80;99.90
28069;DHT22;15382;47.578;8.086;2024-03-06T01:11:45;4.70;99.90
28069;DHT22;15382;47.578;8.086;2024-03-06T01:21:48;4.70;99.90
28069;DHT22;15382;47.578;8.086;2024-03-06T01:31:48;4.70;99.90
28069;DHT22;15382;47.578;8.086;2024-03-06T01:41:50;4.60;99.90
28069;DHT22;15382;47.578;8.086;2024-03-06T01:51:54;4.60;99.90
28069;DHT22;15382;47.578;8.086;2024-03-06T02:01:56;4.50;99.90
28069;DHT22;15382;47.578;8.086;2024-03-06T02:11:57;4.40;99.90
28069;DHT22;15382;47.578;8.086;2024-03-06T02:21:57;4.50;99.90
28069;DHT22;15382;47.578;8.086;2024-03-06T02:31:58;4.50;99.90
28069;DHT22;15382;47.578;8.086;2024-03-06T02:41:59;4.40;99.90
28069;DHT22;15382;47.578;8.086;2024-03-06T02:52:00;4.50;99.90
28069;DHT22;15382;47.578;8.086;2024-03-06T03:02:02;4.50;99.90
28069;DHT22;15382;47.578;8.086;2024-03-06T03:12:03;4.50;99.90
28069;DHT22;15382;47.578;8.086;2024-03-06T03:22:04;4.50;99.90
28069;DHT22;15382;47.578;8.086;2024-03-06T03:32:05;4.50;99.90
28069;DHT22;15382;47.578;8.086;2024-03-06T03:42:06;4.60;99.90
28069;DHT22;15382;47.578;8.086;2024-03-06T03:52:06;4.70;99.90
28069;DHT22;15382;47.578;8.086;2024-03-06T04:02:07;4.70;99.90
28069;DHT22;15382;47.578;8.086;2024-03-06T04:12:08;4.70;99.90
28069;DHT22;15382;47.578;8.086;2024-03-06T04:22:09;4.50;99.90
28069;DHT22;15382;47.578;8.086;2024-03-06T04:32:09;4.50;99.90
28069;DHT22;15382;47.578;8.086;2024-03-06T04:42:10;4.50;99.90
28069;DHT22;15382;47.578;8.086;2024-03-06T04:52:10;4.50;99.90
28069;DHT22;15382;47.578;8.086;2024-03-06T05:02:11;4.50;99.90
28069;DHT22;15382;47.578;8.086;2024-03-06T05:12:12;4.40;99.90
28069;DHT22;15382;47.578;8.086;2024-03-06T05:22:13;4.40;99.90
28069;DHT22;15382;47.578;8.086;2024-03-06T05:32:14;4.40;99.90
28069;DHT22;15382;47.578;8.086;2024-03-06T05:42:14;4.50;99.90
28069;DHT22;15382;47.578;8.086;2024-03-06T05:52:15;4.40;99.90
28069;DHT22;15382;47.578;8.086;2024-03-06T06:02:15;4.50;99.90
28069;DHT22;15382;47.578;8.086;2024-03-06T06:12:22;4.40;99.90
28069;DHT22;15382;47.578;8.086;2024-03-06T06:22:23;4.40;99.90
28069;DHT22;15382;47.578;8.086;2024-03-06T06:32:24;4.40;99.90
28069;DHT22;15382;47.578;8.086;2024-03-06T06:42:24;4.40;99.90
28069;DHT22;15382;47.578;8.086;2024-03-06T06:52:25;4.40;99.90
28069;DHT22;15382;47.578;8.086;2024-03-06T07:02:28;4.50;99.90
28069;DHT22;15382;47.578;8.086;2024-03-06T07:12:28;4.40;99.90
28069;DHT22;15382;47.578;8.086;2024-03-06T07:22:29;4.50;99.90
28069;DHT22;15382;47.578;8.086;2024-03-06T07:32:30;4.60;99.90
28069;DHT22;15382;47.578;8.086;2024-03-06T07:42:30;4.60;99.90
28069;DHT22;15382;47.578;8.086;2024-03-06T07:52:31;4.60;99.90
28069;DHT22;15382;47.578;8.086;2024-03-06T08:02:32;4.70;99.90
28069;DHT22;15382;47.578;8.086;2024-03-06T08:12:32;4.70;99.90
28069;DHT22;15382;47.578;8.086;2024-03-06T08:22:34;4.80;99.90
28069;DHT22;15382;47.578;8.086;2024-03-06T08:32:38;4.80;99.90
28069;DHT22;15382;47.578;8.086;2024-03-06T08:42:39;4.70;99.90
28069;DHT22;15382;47.578;8.086;2024-03-06T08:52:40;4.70;99.90
28069;DHT22;15382;47.578;8.086;2024-03-06T09:02:41;4.90;99.90
28069;DHT22;15382;47.578;8.086;2024-03-06T09:12:42;4.80;99.90
28069;DHT22;15382;47.578;8.086;2024-03-06T09:22:43;5.00;99.90
28069;DHT22;15382;47.578;8.086;2024-03-06T09:32:43;5.10;99.90
28069;DHT22;15382;47.578;8.086;2024-03-06T09:42:44;5.10;99.90
28069;DHT22;15382;47.578;8.086;2024-03-06T09:52:45;5.10;99.90
28069;DHT22;15382;47.578;8.086;2024-03-06T10:02:58;5.30;99.90
28069;DHT22;15382;47.578;8.086;2024-03-06T10:13:00;5.40;99.90
28069;DHT22;15382;47.578;8.086;2024-03-06T10:23:01;5.50;99.90
28069;DHT22;15382;47.578;8.086;2024-03-06T10:33:02;5.70;99.90
28069;DHT22;15382;47.578;8.086;2024-03-06T10:43:05;5.90;99.90
28069;DHT22;15382;47.578;8.086;2024-03-06T10:53:07;6.40;99.90
28069;DHT22;15382;47.578;8.086;2024-03-06T11:03:09;6.80;99.90
28069;DHT22;15382;47.578;8.086;2024-03-06T11:23:23;7.00;99.90
28069;DHT22;15382;47.578;8.086;2024-03-06T11:33:40;7.00;99.90
28069;DHT22;15382;47.578;8.086;2024-03-06T11:43:42;6.70;99.90
28069;DHT22;15382;47.578;8.086;2024-03-06T11:53:43;6.60;99.90
28069;DHT22;15382;47.578;8.086;2024-03-06T12:03:45;6.40;99.90
28069;DHT22;15382;47.578;8.086;2024-03-06T12:13:48;6.40;99.90
28069;DHT22;15382;47.578;8.086;2024-03-06T12:23:48;6.70;99.90
28069;DHT22;15382;47.578;8.086;2024-03-06T12:33:56;7.20;99.90
28069;DHT22;15382;47.578;8.086;2024-03-06T12:43:57;7.30;99.90
28069;DHT22;15382;47.578;8.086;2024-03-06T12:53:58;7.30;99.90
28069;DHT22;15382;47.578;8.086;2024-03-06T13:03:58;7.30;99.90
28069;DHT22;15382;47.578;8.086;2024-03-06T13:14:00;7.40;99.90
28069;DHT22;15382;47.578;8.086;2024-03-06T13:24:01;7.30;99.90
28069;DHT22;15382;47.578;8.086;2024-03-06T13:34:02;7.30;99.90
28069;DHT22;15382;47.578;8.086;2024-03-06T13:44:04;7.20;99.90
28069;DHT22;15382;47.578;8.086;2024-03-06T13:54:04;7.10;99.90
28069;DHT22;15382;47.578;8.086;2024-03-06T14:04:05;7.20;99.90
28069;DHT22;15382;47.578;8.086;2024-03-06T14:14:06;7.20;99.90
28069;DHT22;15382;47.578;8.086;2024-03-06T14:24:07;7.00;99.90
28069;DHT22;15382;47.578;8.086;2024-03-06T14:34:07;6.90;99.90
28069;DHT22;15382;47.578;8.086;2024-03-06T14:44:08;6.80;99.90
28069;DHT22;15382;47.578;8.086;2024-03-06T14:54:09;6.70;99.90
28069;DHT22;15382;47.578;8.086;2024-03-06T15:04:10;6.50;99.90
28069;DHT22;15382;47.578;8.086;2024-03-06T15:14:13;6.70;99.90
28069;DHT22;15382;47.578;8.086;2024-03-06T15:24:14;6.90;99.90
28069;DHT22;15382;47.578;8.086;2024-03-06T15:34:15;6.80;99.90
28069;DHT22;15382;47.578;8.086;2024-03-06T15:44:15;6.60;99.90
28069;DHT22;15382;47.578;8.086;2024-03-06T15:54:16;6.60;99.90
28069;DHT22;15382;47.578;8.086;2024-03-06T16:04:17;6.70;99.90
28069;DHT22;15382;47.578;8.086;2024-03-06T16:14:17;6.70;99.90
28069;DHT22;15382;47.578;8.086;2024-03-06T16:24:18;6.40;99.90
28069;DHT22;15382;47.578;8.086;2024-03-06T16:34:19;6.40;99.90
28069;DHT22;15382;47.578;8.086;2024-03-06T16:44:23;6.30;99.90
28069;DHT22;15382;47.578;8.086;2024-03-06T16:54:24;6.20;99.90
28069;DHT22;15382;47.578;8.086;2024-03-06T17:04:24;6.00;99.90
28069;DHT22;15382;47.578;8.086;2024-03-06T17:14:25;6.00;99.90
28069;DHT22;15382;47.578;8.086;2024-03-06T17:24:26;5.80;99.90
28069;DHT22;15382;47.578;8.086;2024-03-06T17:34:28;5.70;99.90
28069;DHT22;15382;47.578;8.086;2024-03-06T17:44:28;5.70;99.90
28069;DHT22;15382;47.578;8.086;2024-03-06T17:54:29;5.70;99.90
28069;DHT22;15382;47.578;8.086;2024-03-06T18:04:30;5.60;99.90
28069;DHT22;15382;47.578;8.086;2024-03-06T18:14:30;5.60;99.90
28069;DHT22;15382;47.578;8.086;2024-03-06T18:24:31;5.60;99.90
28069;DHT22;15382;47.578;8.086;2024-03-06T18:34:32;5.60;99.90
28069;DHT22;15382;47.578;8.086;2024-03-06T18:44:34;5.50;99.90
28069;DHT22;15382;47.578;8.086;2024-03-06T18:54:36;5.30;99.90
28069;DHT22;15382;47.578;8.086;2024-03-06T19:04:39;5.20;99.90
28069;DHT22;15382;47.578;8.086;2024-03-06T19:14:41;5.10;99.90
28069;DHT22;15382;47.578;8.086;2024-03-06T19:24:41;5.10;99.90
28069;DHT22;15382;47.578;8.086;2024-03-06T19:34:43;5.00;99.90
28069;DHT22;15382;47.578;8.086;2024-03-06T19:44:44;4.90;99.90
28069;DHT22;15382;47.578;8.086;2024-03-06T19:54:45;4.90;99.90
28069;DHT22;15382;47.578;8.086;2024-03-06T20:04:47;4.90;99.90
28069;DHT22;15382;47.578;8.086;2024-03-06T20:14:49;4.80;99.90
28069;DHT22;15382;47.578;8.086;2024-03-06T20:24:50;4.80;99.90
28069;DHT22;15382;47.578;8.086;2024-03-06T20:34:50;4.80;99.90
28069;DHT22;15382;47.578;8.086;2024-03-06T20:44:51;4.80;99.90
28069;DHT22;15382;47.578;8.086;2024-03-06T20:54:52;4.70;99.90
28069;DHT22;15382;47.578;8.086;2024-03-06T21:04:52;4.70;99.90
28069;DHT22;15382;47.578;8.086;2024-03-06T21:14:56;4.80;99.90
28069;DHT22;15382;47.578;8.086;2024-03-06T21:24:58;4.80;99.90
28069;DHT22;15382;47.578;8.086;2024-03-06T21:34:59;4.70;99.90
28069;DHT22;15382;47.578;8.086;2024-03-06T21:45:00;4.70;99.90
28069;DHT22;15382;47.578;8.086;2024-03-06T21:55:01;4.60;99.90
28069;DHT22;15382;47.578;8.086;2024-03-06T22:05:03;4.60;99.90
28069;DHT22;15382;47.578;8.086;2024-03-06T22:15:04;4.60;99.90
28069;DHT22;15382;47.578;8.086;2024-03-06T22:25:05;4.60;99.90
28069;DHT22;15382;47.578;8.086;2024-03-06T22:35:06;4.50;99.90
28069;DHT22;15382;47.578;8.086;2024-03-06T22:45:06;4.50;99.90
28069;DHT22;15382;47.578;8.086;2024-03-06T22:55:08;4.50;99.90
28069;DHT22;15382;47.578;8.086;2024-03-06T23:05:08;4.50;99.90
28069;DHT22;15382;47.578;8.086;2024-03-06T23:15:09;4.50;99.90
28069;DHT22;15382;47.578;8.086;2024-03-06T23:25:10;4.40;99.90
28069;DHT22;15382;47.578;8.086;2024-03-06T23:35:14;4.50;99.90
28069;DHT22;15382;47.578;8.086;2024-03-06T23:45:15;4.50;99.90
28069;DHT22;15382;47.578;8.086;2024-03-06T23:55:16;4.50;99.90
